createdAt,value
2022-11-10T00:00:06.079Z,1000.01
2022-11-10T00:01:06.092Z,1000.04
2022-11-10T00:02:06.112Z,1000.08
2022-11-10T00:03:06.133Z,1000.03
2022-11-10T00:04:06.181Z,1000.1
2022-11-10T00:05:06.164Z,1000.08
2022-11-10T00:06:06.195Z,1000.14
2022-11-10T00:07:06.245Z,1000.1
2022-11-10T00:08:06.255Z,1000.15
2022-11-10T00:09:06.241Z,1000.18
2022-11-10T00:10:06.565Z,1000.14
2022-11-10T00:11:06.293Z,1000.18
2022-11-10T00:12:06.294Z,1000.2
2022-11-10T00:13:06.312Z,1000.21
2022-11-10T00:14:06.330Z,1000.27
2022-11-10T00:15:06.349Z,1000.24
2022-11-10T00:16:06.369Z,1000.28
2022-11-10T00:17:06.382Z,1000.3
2022-11-10T00:18:06.404Z,1000.32
2022-11-10T00:19:06.420Z,1000.33
2022-11-10T00:20:06.440Z,1000.3
2022-11-10T00:21:06.458Z,1000.32
2022-11-10T00:22:06.479Z,1000.36
2022-11-10T00:23:06.494Z,1000.36
2022-11-10T00:24:06.537Z,1000.39
2022-11-10T00:25:06.528Z,1000.37
2022-11-10T00:26:06.548Z,1000.35
2022-11-10T00:27:06.565Z,1000.37
2022-11-10T00:28:06.584Z,1000.38
2022-11-10T00:29:06.601Z,1000.44
2022-11-10T00:30:06.618Z,1000.39
2022-11-10T00:31:06.643Z,1000.43
2022-11-10T00:32:06.658Z,1000.46
2022-11-10T00:33:06.671Z,1000.55
2022-11-10T00:34:06.690Z,1000.48
2022-11-10T00:35:06.709Z,1000.51
2022-11-10T00:36:06.729Z,1000.54
2022-11-10T00:37:06.744Z,1000.57
2022-11-10T00:38:06.766Z,1000.58
2022-11-10T00:39:06.783Z,1000.56
2022-11-10T00:40:06.824Z,1000.62
2022-11-10T00:41:06.818Z,1000.62
2022-11-10T00:42:06.836Z,1000.59
2022-11-10T00:43:06.853Z,1000.58
2022-11-10T00:44:06.871Z,1000.64
2022-11-10T00:45:06.892Z,1000.63
2022-11-10T00:46:06.906Z,1000.62
2022-11-10T00:47:06.929Z,1000.69
2022-11-10T00:48:06.941Z,1000.67
2022-11-10T00:49:06.964Z,1000.68
2022-11-10T00:50:06.982Z,1000.66
2022-11-10T00:51:06.999Z,1000.73
2022-11-10T00:52:07.014Z,1000.69
2022-11-10T00:53:07.036Z,1000.71
2022-11-10T00:54:07.053Z,1000.7
2022-11-10T00:55:07.075Z,1000.71
2022-11-10T00:56:07.111Z,1000.75
2022-11-10T00:57:07.111Z,1000.72
2022-11-10T00:58:07.129Z,1000.74
2022-11-10T00:59:07.146Z,1000.76
2022-11-10T01:00:07.160Z,1000.75
2022-11-10T01:01:07.241Z,1000.78
2022-11-10T01:02:07.194Z,1000.77
2022-11-10T01:03:07.216Z,1000.8
2022-11-10T01:04:07.231Z,1000.77
2022-11-10T01:05:07.253Z,1000.79
2022-11-10T01:06:07.269Z,1000.82
2022-11-10T01:07:07.304Z,1000.82
2022-11-10T01:08:07.307Z,1000.82
2022-11-10T01:09:07.326Z,1000.87
2022-11-10T01:10:07.393Z,1000.89
2022-11-10T01:11:07.361Z,1000.9
2022-11-10T01:12:07.402Z,1000.89
2022-11-10T01:13:07.398Z,1000.94
2022-11-10T01:14:07.413Z,1000.92
2022-11-10T01:15:07.434Z,1000.91
2022-11-10T01:16:07.449Z,1000.91
2022-11-10T01:17:07.467Z,1000.94
2022-11-10T01:18:07.485Z,1001.01
2022-11-10T01:19:07.508Z,1000.97
2022-11-10T01:20:07.520Z,1001.04
2022-11-10T01:21:07.545Z,1001.04
2022-11-10T01:22:07.558Z,1001.05
2022-11-10T01:23:07.577Z,1001.04
2022-11-10T01:24:07.593Z,1001.03
2022-11-10T01:25:07.613Z,1001.05
2022-11-10T01:26:07.629Z,1001.05
2022-11-10T01:27:07.650Z,1001.05
2022-11-10T01:28:07.690Z,1001.06
2022-11-10T01:29:07.689Z,1001.11
2022-11-10T01:30:07.700Z,1001.12
2022-11-10T01:31:07.721Z,1001.12
2022-11-10T01:32:07.735Z,1001.11
2022-11-10T01:33:07.762Z,1001.11
2022-11-10T01:34:07.776Z,1001.13
2022-11-10T01:35:07.792Z,1001.12
2022-11-10T01:36:07.813Z,1001.15
2022-11-10T01:37:07.837Z,1001.12
2022-11-10T01:38:07.847Z,1001.13
2022-11-10T01:39:07.866Z,1001.11
2022-11-10T01:40:07.940Z,1001.08
2022-11-10T01:41:07.900Z,1001.13
2022-11-10T01:42:07.922Z,1001.07
2022-11-10T01:43:07.937Z,1001.05
2022-11-10T01:44:07.982Z,1001.09
2022-11-10T01:45:07.973Z,1001.08
2022-11-10T01:46:07.991Z,1001.12
2022-11-10T01:47:12.218Z,1001.08
2022-11-10T01:48:08.026Z,1001.11
2022-11-10T01:49:08.050Z,1001.15
2022-11-10T01:50:08.063Z,1001.11
2022-11-10T01:51:08.085Z,1001.15
2022-11-10T01:52:08.097Z,1001.15
2022-11-10T01:53:08.121Z,1001.14
2022-11-10T01:54:08.136Z,1001.11
2022-11-10T01:55:08.153Z,1001.16
2022-11-10T01:56:08.185Z,1001.18
2022-11-10T01:57:08.191Z,1001.22
2022-11-10T01:58:08.206Z,1001.21
2022-11-10T01:59:08.232Z,1001.25
2022-11-10T02:00:08.267Z,1001.22
2022-11-10T02:01:08.358Z,1001.26
2022-11-10T02:02:08.282Z,1001.33
2022-11-10T02:03:08.300Z,1001.34
2022-11-10T02:04:08.314Z,1001.38
2022-11-10T02:05:08.337Z,1001.35
2022-11-10T02:06:08.350Z,1001.36
2022-11-10T02:07:08.422Z,1001.37
2022-11-10T02:08:08.388Z,1001.41
2022-11-10T02:09:08.408Z,1001.39
2022-11-10T02:10:08.626Z,1001.4
2022-11-10T02:11:08.443Z,1001.39
2022-11-10T02:12:08.462Z,1001.37
2022-11-10T02:13:08.481Z,1001.44
2022-11-10T02:14:08.497Z,1001.41
2022-11-10T02:15:08.514Z,1001.41
2022-11-10T02:16:08.554Z,1001.45
2022-11-10T02:17:08.552Z,1001.43
2022-11-10T02:18:08.567Z,1001.45
2022-11-10T02:19:08.587Z,1001.5
2022-11-10T02:20:08.603Z,1001.52
2022-11-10T02:21:08.623Z,1001.57
2022-11-10T02:22:08.640Z,1001.55
2022-11-10T02:23:08.663Z,1001.55
2022-11-10T02:24:08.679Z,1001.54
2022-11-10T02:25:08.696Z,1001.55
2022-11-10T02:26:08.713Z,1001.53
2022-11-10T02:27:08.732Z,1001.6
2022-11-10T02:28:08.751Z,1001.61
2022-11-10T02:29:08.766Z,1001.59
2022-11-10T02:30:08.786Z,1001.6
2022-11-10T02:31:08.802Z,1001.55
2022-11-10T02:32:08.850Z,1001.61
2022-11-10T02:33:08.840Z,1001.66
2022-11-10T02:34:08.864Z,1001.66
2022-11-10T02:35:08.877Z,1001.65
2022-11-10T02:36:08.896Z,1001.66
2022-11-10T02:37:08.909Z,1001.75
2022-11-10T02:38:08.932Z,1001.73
2022-11-10T02:39:08.947Z,1001.73
2022-11-10T02:40:08.966Z,1001.72
2022-11-10T02:41:08.985Z,1001.72
2022-11-10T02:42:09.004Z,1001.71
2022-11-10T02:43:09.023Z,1001.67
2022-11-10T02:44:09.039Z,1001.63
2022-11-10T02:45:09.055Z,1001.61
2022-11-10T02:46:09.073Z,1001.52
2022-11-10T02:47:09.089Z,1001.54
2022-11-10T02:48:09.131Z,1001.54
2022-11-10T02:49:09.130Z,1001.54
2022-11-10T02:50:09.147Z,1001.61
2022-11-10T02:51:09.161Z,1001.55
2022-11-10T02:52:09.182Z,1001.54
2022-11-10T02:53:09.200Z,1001.55
2022-11-10T02:54:09.216Z,1001.5
2022-11-10T02:55:09.230Z,1001.53
2022-11-10T02:56:09.257Z,1001.6
2022-11-10T02:57:09.273Z,1001.57
2022-11-10T02:58:09.295Z,1001.64
2022-11-10T02:59:09.304Z,1001.67
2022-11-10T03:00:09.325Z,1001.72
2022-11-10T03:01:09.425Z,1001.73
2022-11-10T03:02:09.361Z,1001.75
2022-11-10T03:03:09.377Z,1001.73
2022-11-10T03:04:09.427Z,1001.74
2022-11-10T03:05:09.413Z,1001.72
2022-11-10T03:06:09.430Z,1001.74
2022-11-10T03:07:09.504Z,1001.82
2022-11-10T03:08:09.467Z,1001.8
2022-11-10T03:09:09.485Z,1001.88
2022-11-10T03:10:09.553Z,1001.95
2022-11-10T03:11:09.519Z,1001.9
2022-11-10T03:12:09.542Z,1001.9
2022-11-10T03:13:09.555Z,1001.91
2022-11-10T03:14:09.575Z,1001.89
2022-11-10T03:15:09.595Z,1001.89
2022-11-10T03:16:09.613Z,1001.92
2022-11-10T03:17:09.625Z,1001.95
2022-11-10T03:18:09.646Z,1001.9
2022-11-10T03:19:09.668Z,1001.94
2022-11-10T03:20:09.708Z,1001.97
2022-11-10T03:21:09.702Z,1001.97
2022-11-10T03:22:09.720Z,1001.98
2022-11-10T03:23:09.740Z,1001.97
2022-11-10T03:24:09.760Z,1001.98
2022-11-10T03:25:09.772Z,1001.97
2022-11-10T03:26:09.790Z,1002.01
2022-11-10T03:27:09.810Z,1002
2022-11-10T03:28:09.826Z,1002.01
2022-11-10T03:29:09.850Z,1002.03
2022-11-10T03:30:09.861Z,1002.01
2022-11-10T03:31:09.884Z,1002.03
2022-11-10T03:32:09.899Z,1002.04
2022-11-10T03:33:09.920Z,1002.01
2022-11-10T03:34:09.936Z,1002.04
2022-11-10T03:35:09.953Z,1002
2022-11-10T03:36:09.994Z,1002.01
2022-11-10T03:37:09.990Z,1002
2022-11-10T03:38:10.004Z,1001.96
2022-11-10T03:39:10.031Z,1002.02
2022-11-10T03:40:10.046Z,1002.01
2022-11-10T03:41:19.112Z,1002.02
2022-11-10T03:42:10.080Z,1002.02
2022-11-10T03:43:10.097Z,1002.05
2022-11-10T03:44:10.116Z,1002.03
2022-11-10T03:45:10.134Z,1002.04
2022-11-10T03:46:10.153Z,1002.06
2022-11-10T03:47:10.172Z,1002.1
2022-11-10T03:48:10.186Z,1002.09
2022-11-10T03:49:10.209Z,1002.13
2022-11-10T03:50:10.222Z,1002.16
2022-11-10T03:51:10.246Z,1002.14
2022-11-10T03:52:10.286Z,1002.22
2022-11-10T03:53:10.281Z,1002.18
2022-11-10T03:54:10.295Z,1002.26
2022-11-10T03:55:10.317Z,1002.3
2022-11-10T03:56:10.330Z,1002.27
2022-11-10T03:57:10.353Z,1002.29
2022-11-10T03:58:10.367Z,1002.34
2022-11-10T03:59:10.387Z,1002.32
2022-11-10T04:00:10.408Z,1002.3
2022-11-10T04:01:10.436Z,1002.3
2022-11-10T04:02:10.516Z,1002.25
2022-11-10T04:03:10.461Z,1002.33
2022-11-10T04:04:10.480Z,1002.31
2022-11-10T04:05:10.506Z,1002.34
2022-11-10T04:06:10.516Z,1002.34
2022-11-10T04:07:10.564Z,1002.38
2022-11-10T04:08:10.573Z,1002.41
2022-11-10T04:09:10.569Z,1002.4
2022-11-10T04:10:10.785Z,1002.42
2022-11-10T04:11:10.610Z,1002.45
2022-11-10T04:12:10.620Z,1002.51
2022-11-10T04:13:10.636Z,1002.53
2022-11-10T04:14:10.661Z,1002.54
2022-11-10T04:15:10.673Z,1002.51
2022-11-10T04:16:10.694Z,1002.51
2022-11-10T04:17:10.711Z,1002.53
2022-11-10T04:18:10.730Z,1002.57
2022-11-10T04:19:10.746Z,1002.52
2022-11-10T04:20:10.768Z,1002.56
2022-11-10T04:21:10.784Z,1002.62
2022-11-10T04:22:10.801Z,1002.54
2022-11-10T04:23:10.818Z,1002.59
2022-11-10T04:24:10.862Z,1002.61
2022-11-10T04:25:10.855Z,1002.62
2022-11-10T04:26:10.876Z,1002.64
2022-11-10T04:27:10.890Z,1002.69
2022-11-10T04:28:10.913Z,1002.67
2022-11-10T04:29:10.928Z,1002.71
2022-11-10T04:30:10.946Z,1002.76
2022-11-10T04:31:10.963Z,1002.81
2022-11-10T04:32:10.985Z,1002.81
2022-11-10T04:33:10.996Z,1002.82
2022-11-10T04:34:11.017Z,1002.82
2022-11-10T04:35:11.032Z,1002.81
2022-11-10T04:36:11.057Z,1002.8
2022-11-10T04:37:11.072Z,1002.82
2022-11-10T04:38:11.091Z,1002.83
2022-11-10T04:39:11.117Z,1002.85
2022-11-10T04:40:11.153Z,1002.83
2022-11-10T04:41:11.141Z,1002.85
2022-11-10T04:42:11.162Z,1002.91
2022-11-10T04:43:11.184Z,1002.94
2022-11-10T04:44:11.205Z,1002.93
2022-11-10T04:45:11.215Z,1002.89
2022-11-10T04:46:11.235Z,1002.91
2022-11-10T04:47:12.092Z,1002.94
2022-11-10T04:48:11.272Z,1002.91
2022-11-10T04:49:11.286Z,1002.99
2022-11-10T04:50:11.306Z,1002.97
2022-11-10T04:51:11.335Z,1002.97
2022-11-10T04:52:11.341Z,1003
2022-11-10T04:53:11.356Z,1003
2022-11-10T04:54:11.380Z,1002.98
2022-11-10T04:55:11.395Z,1003
2022-11-10T04:56:11.437Z,1003
2022-11-10T04:57:11.429Z,1003.02
2022-11-10T04:58:11.450Z,1003.07
2022-11-10T04:59:11.467Z,1003.07
2022-11-10T05:00:11.489Z,1003.12
2022-11-10T05:01:11.572Z,1003.12
2022-11-10T05:02:11.521Z,1003.12
2022-11-10T05:03:11.541Z,1003.16
2022-11-10T05:04:11.557Z,1003.16
2022-11-10T05:05:11.576Z,1003.25
2022-11-10T05:06:11.595Z,1003.19
2022-11-10T05:07:11.652Z,1003.19
2022-11-10T05:08:11.626Z,1003.19
2022-11-10T05:09:11.648Z,1003.22
2022-11-10T05:10:11.765Z,1003.28
2022-11-10T05:11:11.686Z,1003.25
2022-11-10T05:12:11.727Z,1003.28
2022-11-10T05:13:11.719Z,1003.26
2022-11-10T05:14:11.738Z,1003.3
2022-11-10T05:15:11.756Z,1003.29
2022-11-10T05:16:11.772Z,1003.3
2022-11-10T05:17:11.794Z,1003.31
2022-11-10T05:18:11.807Z,1003.36
2022-11-10T05:19:11.832Z,1003.41
2022-11-10T05:20:11.843Z,1003.43
2022-11-10T05:21:11.864Z,1003.43
2022-11-10T05:22:11.881Z,1003.5
2022-11-10T05:23:11.899Z,1003.55
2022-11-10T05:24:11.916Z,1003.61
2022-11-10T05:25:11.937Z,1003.61
2022-11-10T05:26:11.951Z,1003.51
2022-11-10T05:27:11.971Z,1003.46
2022-11-10T05:28:12.017Z,1003.47
2022-11-10T05:29:12.007Z,1003.5
2022-11-10T05:30:12.022Z,1003.49
2022-11-10T05:31:12.045Z,1003.48
2022-11-10T05:32:12.062Z,1003.49
2022-11-10T05:33:12.083Z,1003.56
2022-11-10T05:34:12.101Z,1003.54
2022-11-10T05:35:12.123Z,1003.56
2022-11-10T05:36:12.137Z,1003.63
2022-11-10T05:37:12.152Z,1003.64
2022-11-10T05:38:12.170Z,1003.7
2022-11-10T05:39:12.192Z,1003.73
2022-11-10T05:40:12.203Z,1003.72
2022-11-10T05:41:12.225Z,1003.75
2022-11-10T05:42:12.242Z,1003.75
2022-11-10T05:43:12.262Z,1003.77
2022-11-10T05:44:12.301Z,1003.8
2022-11-10T05:45:12.298Z,1003.83
2022-11-10T05:46:12.313Z,1003.91
2022-11-10T05:47:12.339Z,1003.92
2022-11-10T05:48:12.351Z,1003.88
2022-11-10T05:49:12.370Z,1003.9
2022-11-10T05:50:12.395Z,1003.93
2022-11-10T05:51:12.414Z,1003.92
2022-11-10T05:52:12.420Z,1003.98
2022-11-10T05:53:12.438Z,1003.99
2022-11-10T05:54:12.461Z,1004
2022-11-10T05:55:12.476Z,1003.99
2022-11-10T05:56:12.495Z,1004
2022-11-10T05:57:12.515Z,1004.03
2022-11-10T05:58:12.530Z,1004
2022-11-10T05:59:12.546Z,1004
2022-11-10T06:00:12.593Z,1004.02
2022-11-10T06:01:12.583Z,1004
2022-11-10T06:02:12.602Z,1004
2022-11-10T06:03:12.749Z,1004.04
2022-11-10T06:04:12.645Z,1004.04
2022-11-10T06:05:12.654Z,1004.05
2022-11-10T06:06:12.678Z,1004.05
2022-11-10T06:07:12.739Z,1004.09
2022-11-10T06:08:12.915Z,1004.11
2022-11-10T06:09:12.735Z,1004.13
2022-11-10T06:10:13.046Z,1004.16
2022-11-10T06:11:12.914Z,1004.19
2022-11-10T06:12:12.883Z,1004.16
2022-11-10T06:13:12.947Z,1004.21
2022-11-10T06:14:12.920Z,1004.21
2022-11-10T06:15:12.985Z,1004.24
2022-11-10T06:16:12.924Z,1004.32
2022-11-10T06:17:12.920Z,1004.33
2022-11-10T06:18:12.897Z,1004.3
2022-11-10T06:19:12.910Z,1004.34
2022-11-10T06:20:12.925Z,1004.37
2022-11-10T06:21:12.938Z,1004.43
2022-11-10T06:22:12.964Z,1004.48
2022-11-10T06:23:12.978Z,1004.45
2022-11-10T06:24:12.998Z,1004.5
2022-11-10T06:25:13.011Z,1004.49
2022-11-10T06:26:13.029Z,1004.54
2022-11-10T06:27:13.062Z,1004.51
2022-11-10T06:28:13.071Z,1004.5
2022-11-10T06:29:13.084Z,1004.55
2022-11-10T06:30:13.103Z,1004.57
2022-11-10T06:31:13.122Z,1004.53
2022-11-10T06:32:13.165Z,1004.56
2022-11-10T06:33:13.157Z,1004.52
2022-11-10T06:34:13.179Z,1004.6
2022-11-10T06:35:13.196Z,1004.59
2022-11-10T06:36:13.208Z,1004.57
2022-11-10T06:37:13.226Z,1004.59
2022-11-10T06:38:13.249Z,1004.67
2022-11-10T06:39:13.264Z,1004.66
2022-11-10T06:40:13.279Z,1004.68
2022-11-10T06:41:13.296Z,1004.67
2022-11-10T06:42:13.323Z,1004.64
2022-11-10T06:43:13.338Z,1004.65
2022-11-10T06:44:13.358Z,1004.7
2022-11-10T06:45:13.375Z,1004.7
2022-11-10T06:46:13.384Z,1004.7
2022-11-10T06:47:13.411Z,1004.66
2022-11-10T06:48:13.450Z,1004.68
2022-11-10T06:49:13.449Z,1004.67
2022-11-10T06:50:13.455Z,1004.67
2022-11-10T06:51:13.482Z,1004.69
2022-11-10T06:52:13.495Z,1004.72
2022-11-10T06:53:13.519Z,1004.7
2022-11-10T06:54:13.529Z,1004.7
2022-11-10T06:55:13.558Z,1004.71
2022-11-10T06:56:13.569Z,1004.69
2022-11-10T06:57:13.585Z,1004.71
2022-11-10T06:58:13.601Z,1004.73
2022-11-10T06:59:13.619Z,1004.79
2022-11-10T07:00:13.636Z,1004.74
2022-11-10T07:01:14.411Z,1004.75
2022-11-10T07:02:13.778Z,1004.75
2022-11-10T07:03:13.699Z,1004.75
2022-11-10T07:04:19.509Z,1004.77
2022-11-10T07:05:13.792Z,1004.78
2022-11-10T07:06:13.746Z,1004.77
2022-11-10T07:07:13.794Z,1004.76
2022-11-10T07:08:13.781Z,1004.78
2022-11-10T07:09:13.802Z,1004.82
2022-11-10T07:10:14.021Z,1004.81
2022-11-10T07:11:13.845Z,1004.79
2022-11-10T07:12:13.859Z,1004.87
2022-11-10T07:13:13.875Z,1004.87
2022-11-10T07:14:13.891Z,1004.88
2022-11-10T07:15:13.914Z,1004.87
2022-11-10T07:16:13.928Z,1004.95
2022-11-10T07:17:13.952Z,1004.92
2022-11-10T07:18:13.966Z,1004.97
2022-11-10T07:19:13.979Z,1004.99
2022-11-10T07:20:14.024Z,1004.98
2022-11-10T07:21:14.019Z,1005.04
2022-11-10T07:22:14.039Z,1005.06
2022-11-10T07:23:14.061Z,1005.08
2022-11-10T07:24:14.072Z,1005.11
2022-11-10T07:25:14.095Z,1005.11
2022-11-10T07:26:14.111Z,1005.16
2022-11-10T07:27:14.132Z,1005.13
2022-11-10T07:28:14.151Z,1005.15
2022-11-10T07:29:14.173Z,1005.16
2022-11-10T07:30:14.186Z,1005.16
2022-11-10T07:31:14.204Z,1005.21
2022-11-10T07:32:14.215Z,1005.26
2022-11-10T07:33:14.239Z,1005.28
2022-11-10T07:34:14.258Z,1005.29
2022-11-10T07:35:14.270Z,1005.33
2022-11-10T07:36:14.341Z,1005.32
2022-11-10T07:37:14.309Z,1005.35
2022-11-10T07:38:14.341Z,1005.36
2022-11-10T07:39:14.345Z,1005.41
2022-11-10T07:40:14.364Z,1005.41
2022-11-10T07:41:14.382Z,1005.44
2022-11-10T07:42:14.398Z,1005.44
2022-11-10T07:43:14.416Z,1005.45
2022-11-10T07:44:14.433Z,1005.47
2022-11-10T07:45:14.451Z,1005.51
2022-11-10T07:46:14.473Z,1005.52
2022-11-10T07:47:14.490Z,1005.55
2022-11-10T07:48:14.508Z,1005.57
2022-11-10T07:49:14.533Z,1005.57
2022-11-10T07:50:14.546Z,1005.59
2022-11-10T07:51:14.558Z,1005.63
2022-11-10T07:52:14.605Z,1005.63
2022-11-10T07:53:14.599Z,1005.65
2022-11-10T07:54:14.617Z,1005.66
2022-11-10T07:55:14.633Z,1005.66
2022-11-10T07:56:14.653Z,1005.71
2022-11-10T07:57:14.666Z,1005.7
2022-11-10T07:58:14.684Z,1005.75
2022-11-10T07:59:14.704Z,1005.73
2022-11-10T08:00:14.722Z,1005.76
2022-11-10T08:01:14.800Z,1005.76
2022-11-10T08:02:14.758Z,1005.78
2022-11-10T08:03:14.772Z,1005.8
2022-11-10T08:04:14.793Z,1005.8
2022-11-10T08:05:14.809Z,1005.8
2022-11-10T08:06:14.870Z,1005.86
2022-11-10T08:07:14.908Z,1005.87
2022-11-10T08:08:14.886Z,1005.91
2022-11-10T08:09:14.880Z,1005.97
2022-11-10T08:10:14.951Z,1005.98
2022-11-10T08:11:14.917Z,1005.98
2022-11-10T08:12:14.937Z,1006.03
2022-11-10T08:13:14.957Z,1006.01
2022-11-10T08:14:14.975Z,1006.05
2022-11-10T08:15:14.990Z,1006.07
2022-11-10T08:16:15.008Z,1006.07
2022-11-10T08:17:15.028Z,1006.09
2022-11-10T08:18:15.046Z,1006.14
2022-11-10T08:19:15.066Z,1006.13
2022-11-10T08:20:15.081Z,1006.17
2022-11-10T08:21:15.097Z,1006.15
2022-11-10T08:22:15.119Z,1006.19
2022-11-10T08:23:15.133Z,1006.25
2022-11-10T08:24:15.181Z,1006.26
2022-11-10T08:25:15.174Z,1006.28
2022-11-10T08:26:15.188Z,1006.32
2022-11-10T08:27:15.208Z,1006.34
2022-11-10T08:28:15.224Z,1006.29
2022-11-10T08:29:15.243Z,1006.33
2022-11-10T08:30:15.261Z,1006.33
2022-11-10T08:31:15.280Z,1006.34
2022-11-10T08:32:15.297Z,1006.37
2022-11-10T08:33:15.317Z,1006.39
2022-11-10T08:34:15.338Z,1006.38
2022-11-10T08:35:15.353Z,1006.33
2022-11-10T08:36:15.370Z,1006.35
2022-11-10T08:37:15.388Z,1006.39
2022-11-10T08:38:15.407Z,1006.4
2022-11-10T08:39:24.967Z,1006.44
2022-11-10T08:40:15.464Z,1006.45
2022-11-10T08:41:15.462Z,1006.48
2022-11-10T08:42:15.482Z,1006.48
2022-11-10T08:43:15.498Z,1006.53
2022-11-10T08:44:18.137Z,1006.56
2022-11-10T08:45:15.536Z,1006.59
2022-11-10T08:46:15.551Z,1006.63
2022-11-10T08:47:15.571Z,1006.55
2022-11-10T08:48:15.588Z,1006.57
2022-11-10T08:49:15.611Z,1006.6
2022-11-10T08:50:15.621Z,1006.6
2022-11-10T08:51:15.643Z,1006.59
2022-11-10T08:52:15.663Z,1006.62
2022-11-10T08:53:15.682Z,1006.64
2022-11-10T08:54:15.697Z,1006.54
2022-11-10T08:55:15.718Z,1006.6
2022-11-10T08:56:15.758Z,1006.6
2022-11-10T08:57:15.751Z,1006.59
2022-11-10T08:58:15.819Z,1006.67
2022-11-10T08:59:15.794Z,1006.69
2022-11-10T09:00:15.803Z,1006.73
2022-11-10T09:01:15.841Z,1006.77
2022-11-10T09:02:15.842Z,1006.83
2022-11-10T09:03:15.860Z,1006.83
2022-11-10T09:04:15.997Z,1006.91
2022-11-10T09:05:15.897Z,1006.93
2022-11-10T09:06:15.912Z,1006.87
2022-11-10T09:07:15.938Z,1006.91
2022-11-10T09:08:15.948Z,1006.91
2022-11-10T09:09:15.971Z,1006.88
2022-11-10T09:10:15.985Z,1006.88
2022-11-10T09:11:16.007Z,1006.96
2022-11-10T09:12:16.043Z,1006.94
2022-11-10T09:13:16.040Z,1006.93
2022-11-10T09:14:16.060Z,1006.97
2022-11-10T09:15:16.076Z,1006.99
2022-11-10T09:16:16.092Z,1007.01
2022-11-10T09:17:16.115Z,1007.04
2022-11-10T09:18:16.130Z,1007.08
2022-11-10T09:19:19.779Z,1007.11
2022-11-10T09:20:16.273Z,1007.14
2022-11-10T09:21:16.186Z,1007.19
2022-11-10T09:22:16.203Z,1007.24
2022-11-10T09:23:16.220Z,1007.27
2022-11-10T09:24:16.240Z,1007.27
2022-11-10T09:25:16.256Z,1007.31
2022-11-10T09:26:16.279Z,1007.26
2022-11-10T09:27:16.293Z,1007.22
2022-11-10T09:28:16.341Z,1007.24
2022-11-10T09:29:16.329Z,1007.23
2022-11-10T09:30:18.031Z,1007.2
2022-11-10T09:31:16.364Z,1007.21
2022-11-10T09:32:16.383Z,1007.22
2022-11-10T09:33:16.414Z,1007.26
2022-11-10T09:34:16.419Z,1007.22
2022-11-10T09:35:16.439Z,1007.26
2022-11-10T09:36:16.457Z,1007.29
2022-11-10T09:37:16.472Z,1007.31
2022-11-10T09:38:16.496Z,1007.29
2022-11-10T09:39:16.510Z,1007.33
2022-11-10T09:40:16.531Z,1007.32
2022-11-10T09:41:16.548Z,1007.38
2022-11-10T09:42:16.570Z,1007.36
2022-11-10T09:43:16.607Z,1007.43
2022-11-10T09:44:16.637Z,1007.42
2022-11-10T09:45:16.619Z,1007.39
2022-11-10T09:46:16.640Z,1007.41
2022-11-10T09:47:35.471Z,1007.47
2022-11-10T09:48:16.672Z,1007.47
2022-11-10T09:49:16.691Z,1007.45
2022-11-10T09:50:16.711Z,1007.46
2022-11-10T09:51:16.728Z,1007.49
2022-11-10T09:52:16.751Z,1007.47
2022-11-10T09:53:16.765Z,1007.52
2022-11-10T09:54:16.784Z,1007.56
2022-11-10T09:55:16.801Z,1007.55
2022-11-10T09:56:16.820Z,1007.53
2022-11-10T09:57:16.840Z,1007.52
2022-11-10T09:58:16.859Z,1007.48
2022-11-10T09:59:16.908Z,1007.49
2022-11-10T10:00:16.915Z,1007.53
2022-11-10T10:01:16.938Z,1007.52
2022-11-10T10:02:16.929Z,1007.52
2022-11-10T10:03:16.946Z,1007.56
2022-11-10T10:04:16.965Z,1007.58
2022-11-10T10:05:16.984Z,1007.58
2022-11-10T10:06:17.001Z,1007.57
2022-11-10T10:07:17.055Z,1007.59
2022-11-10T10:08:17.040Z,1007.64
2022-11-10T10:09:17.057Z,1007.61
2022-11-10T10:10:17.643Z,1007.66
2022-11-10T10:11:17.093Z,1007.62
2022-11-10T10:12:17.110Z,1007.66
2022-11-10T10:13:17.131Z,1007.61
2022-11-10T10:14:17.147Z,1007.63
2022-11-10T10:15:17.166Z,1007.62
2022-11-10T10:16:17.208Z,1007.58
2022-11-10T10:17:17.205Z,1007.63
2022-11-10T10:18:17.221Z,1007.62
2022-11-10T10:19:17.240Z,1007.56
2022-11-10T10:20:17.258Z,1007.57
2022-11-10T10:21:17.279Z,1007.59
2022-11-10T10:22:17.294Z,1007.62
2022-11-10T10:23:17.316Z,1007.56
2022-11-10T10:24:21.681Z,1007.61
2022-11-10T10:25:17.355Z,1007.64
2022-11-10T10:26:17.375Z,1007.68
2022-11-10T10:27:17.390Z,1007.66
2022-11-10T10:28:17.402Z,1007.65
2022-11-10T10:29:17.422Z,1007.7
2022-11-10T10:30:17.456Z,1007.68
2022-11-10T10:31:17.462Z,1007.69
2022-11-10T10:32:17.500Z,1007.7
2022-11-10T10:33:17.497Z,1007.68
2022-11-10T10:34:17.516Z,1007.76
2022-11-10T10:35:17.535Z,1007.73
2022-11-10T10:36:17.549Z,1007.8
2022-11-10T10:37:17.570Z,1007.74
2022-11-10T10:38:17.586Z,1007.85
2022-11-10T10:39:17.611Z,1007.8
2022-11-10T10:40:17.623Z,1007.79
2022-11-10T10:41:22.593Z,1007.81
2022-11-10T10:42:17.659Z,1007.79
2022-11-10T10:43:17.680Z,1007.82
2022-11-10T10:44:17.695Z,1007.83
2022-11-10T10:45:17.778Z,1007.86
2022-11-10T10:46:17.742Z,1007.83
2022-11-10T10:47:17.754Z,1007.87
2022-11-10T10:48:17.792Z,1007.81
2022-11-10T10:49:33.187Z,1007.84
2022-11-10T10:50:17.855Z,1007.82
2022-11-10T10:51:17.827Z,1007.79
2022-11-10T10:52:17.846Z,1007.83
2022-11-10T10:53:17.867Z,1007.85
2022-11-10T10:54:17.880Z,1007.89
2022-11-10T10:55:17.904Z,1007.87
2022-11-10T10:56:17.923Z,1007.85
2022-11-10T10:57:17.937Z,1007.83
2022-11-10T10:58:17.955Z,1007.84
2022-11-10T10:59:17.973Z,1007.86
2022-11-10T11:00:18.036Z,1007.85
2022-11-10T11:01:18.108Z,1007.83
2022-11-10T11:02:18.027Z,1007.86
2022-11-10T11:03:18.045Z,1007.84
2022-11-10T11:04:18.098Z,1007.83
2022-11-10T11:05:18.086Z,1007.75
2022-11-10T11:06:18.105Z,1007.76
2022-11-10T11:07:18.152Z,1007.8
2022-11-10T11:08:18.139Z,1007.78
2022-11-10T11:09:18.156Z,1007.74
2022-11-10T11:10:18.177Z,1007.68
2022-11-10T11:11:18.192Z,1007.78
2022-11-10T11:12:18.213Z,1007.73
2022-11-10T11:13:18.230Z,1007.77
2022-11-10T11:14:18.249Z,1007.76
2022-11-10T11:15:18.265Z,1007.79
2022-11-10T11:16:18.284Z,1007.76
2022-11-10T11:17:18.352Z,1007.79
2022-11-10T11:18:18.326Z,1007.82
2022-11-10T11:19:18.339Z,1007.82
2022-11-10T11:20:18.487Z,1007.84
2022-11-10T11:21:18.380Z,1007.81
2022-11-10T11:22:18.397Z,1007.85
2022-11-10T11:23:18.416Z,1007.89
2022-11-10T11:24:18.433Z,1007.91
2022-11-10T11:25:18.450Z,1007.84
2022-11-10T11:26:18.471Z,1007.89
2022-11-10T11:27:18.487Z,1007.88
2022-11-10T11:28:18.521Z,1007.85
2022-11-10T11:29:18.524Z,1007.84
2022-11-10T11:30:18.555Z,1007.82
2022-11-10T11:31:18.559Z,1007.86
2022-11-10T11:32:18.583Z,1007.89
2022-11-10T11:33:18.601Z,1007.84
2022-11-10T11:34:18.615Z,1007.88
2022-11-10T11:35:18.636Z,1007.89
2022-11-10T11:36:18.688Z,1007.91
2022-11-10T11:37:19.535Z,1007.93
2022-11-10T11:38:18.690Z,1007.93
2022-11-10T11:39:18.708Z,1007.9
2022-11-10T11:40:18.729Z,1007.92
2022-11-10T11:41:18.746Z,1007.93
2022-11-10T11:42:18.764Z,1007.92
2022-11-10T11:43:18.782Z,1007.9
2022-11-10T11:44:18.805Z,1007.92
2022-11-10T11:45:18.817Z,1007.89
2022-11-10T11:46:18.839Z,1007.92
2022-11-10T11:47:18.853Z,1007.9
2022-11-10T11:48:18.972Z,1008.01
2022-11-10T11:49:18.890Z,1008.01
2022-11-10T11:50:18.918Z,1007.99
2022-11-10T11:51:18.933Z,1007.95
2022-11-10T11:52:18.970Z,1007.99
2022-11-10T11:53:18.967Z,1007.99
2022-11-10T11:54:18.984Z,1008
2022-11-10T11:55:19.008Z,1007.95
2022-11-10T11:56:19.019Z,1007.95
2022-11-10T11:57:19.042Z,1007.93
2022-11-10T11:58:19.132Z,1007.9
2022-11-10T11:59:19.081Z,1007.94
2022-11-10T12:00:19.190Z,1007.99
2022-11-10T12:01:19.118Z,1007.92
2022-11-10T12:02:19.160Z,1007.93
2022-11-10T12:03:19.153Z,1007.96
2022-11-10T12:04:19.170Z,1008.02
2022-11-10T12:05:19.190Z,1008.01
2022-11-10T12:06:19.205Z,1008.09
2022-11-10T12:07:19.232Z,1008.1
2022-11-10T12:08:19.373Z,1008.14